createdAt,value
2022-08-08T00:01:08.040Z,96764.94
2022-08-08T00:03:48.067Z,96766.56
2022-08-08T00:06:28.471Z,96772.81
2022-08-08T00:09:12.030Z,96762.00
2022-08-08T00:12:09.782Z,96738.94
2022-08-08T00:15:00.221Z,96766.00
2022-08-08T00:18:02.437Z,96763.53
2022-08-08T00:20:36.293Z,96764.63
2022-08-08T00:23:08.170Z,96769.19
2022-08-08T00:25:46.555Z,96766.50
2022-08-08T00:28:35.417Z,96764.09
2022-08-08T00:32:20.480Z,96763.78
2022-08-08T00:34:31.386Z,96761.91
2022-08-08T00:37:45.043Z,96751.63
2022-08-08T00:41:09.988Z,96764.03
2022-08-08T00:43:56.279Z,96762.97
2022-08-08T00:47:13.935Z,96767.78
2022-08-08T00:50:11.537Z,96761.88
2022-08-08T00:52:53.934Z,96764.00
2022-08-08T00:55:53.149Z,96764.03
2022-08-08T00:58:54.658Z,96764.84
2022-08-08T01:01:38.409Z,96768.31
2022-08-08T01:04:33.938Z,96759.66
2022-08-08T01:07:55.942Z,96752.59
2022-08-08T01:11:06.420Z,96744.50
2022-08-08T01:14:08.566Z,96748.47
2022-08-08T01:17:07.845Z,96739.22
2022-08-08T01:20:14.695Z,96733.25
2022-08-08T01:24:03.778Z,96735.41
2022-08-08T01:26:35.664Z,96737.59
2022-08-08T01:29:59.102Z,96730.28
2022-08-08T01:33:01.062Z,96729.69
2022-08-08T01:36:10.189Z,96739.13
2022-08-08T01:39:07.154Z,96745.53
2022-08-08T01:41:58.704Z,96739.56
2022-08-08T01:44:43.218Z,96739.28
2022-08-08T01:48:14.824Z,96748.72
2022-08-08T01:50:34.741Z,96752.78
2022-08-08T01:53:14.405Z,96757.13
2022-08-08T01:56:30.613Z,96757.13
2022-08-08T01:59:38.217Z,96760.06
2022-08-08T02:02:45.756Z,96761.34
2022-08-08T02:05:33.893Z,96762.38
2022-08-08T02:08:34.091Z,96764.00
2022-08-08T02:11:23.516Z,96770.69
2022-08-08T02:13:56.659Z,96782.78
2022-08-08T02:16:35.300Z,96777.91
2022-08-08T02:19:41.451Z,96781.38
2022-08-08T02:22:28.272Z,96779.22
2022-08-08T02:25:11.588Z,96772.06
2022-08-08T02:27:45.089Z,96774.03
2022-08-08T02:30:20.787Z,96778.78
2022-08-08T02:33:21.470Z,96775.00
2022-08-08T02:36:04.425Z,96765.31
2022-08-08T02:39:01.041Z,96774.38
2022-08-08T02:41:59.424Z,96772.94
2022-08-08T02:44:58.003Z,96776.72
2022-08-08T02:48:04.051Z,96777.81
2022-08-08T02:51:04.125Z,96776.91
2022-08-08T02:53:50.723Z,96773.97
2022-08-08T02:56:53.390Z,96768.97
2022-08-08T02:59:57.562Z,96774.91
2022-08-08T03:03:13.753Z,96773.34
2022-08-08T03:06:24.206Z,96769.28
2022-08-08T03:09:41.363Z,96765.22
2022-08-08T03:13:00.978Z,96761.97
2022-08-08T03:16:05.253Z,96768.97
2022-08-08T03:18:39.256Z,96772.84
2022-08-08T03:21:09.678Z,96771.47
2022-08-08T03:23:56.285Z,96775.31
2022-08-08T03:26:32.721Z,96782.59
2022-08-08T03:29:17.135Z,96779.63
2022-08-08T03:32:08.396Z,96772.00
2022-08-08T03:34:37.763Z,96782.19
2022-08-08T03:38:00.255Z,96773.41
2022-08-08T03:40:02.403Z,96788.56
2022-08-08T03:42:31.944Z,96797.16
2022-08-08T03:44:59.864Z,96802.19
2022-08-08T03:47:39.703Z,96791.84
2022-08-08T03:50:19.673Z,96800.44
2022-08-08T03:52:48.769Z,96796.06
2022-08-08T03:55:57.550Z,96796.84
2022-08-08T03:58:32.185Z,96794.75
2022-08-08T04:01:02.033Z,96791.34
2022-08-08T04:03:57.222Z,96788.84
2022-08-08T04:06:29.287Z,96792.53
2022-08-08T04:08:57.328Z,96798.69
2022-08-08T04:11:26.572Z,96794.38
2022-08-08T04:14:03.191Z,96782.22
2022-08-08T04:16:49.223Z,96797.81
2022-08-08T04:19:25.272Z,96799.72
2022-08-08T04:21:54.524Z,96802.88
2022-08-08T04:24:29.384Z,96800.91
2022-08-08T04:27:00.554Z,96808.75
2022-08-08T04:29:36.655Z,96813.00
2022-08-08T04:32:06.889Z,96814.97
2022-08-08T04:34:56.073Z,96814.44
2022-08-08T04:37:31.817Z,96820.56
2022-08-08T04:40:06.449Z,96816.69
2022-08-08T04:42:37.266Z,96820.94
2022-08-08T04:45:06.259Z,96818.59
2022-08-08T04:47:36.776Z,96823.50
2022-08-08T04:50:14.462Z,96821.16
2022-08-08T04:53:00.873Z,96829.56
2022-08-08T04:55:47.291Z,96835.00
2022-08-08T04:58:18.013Z,96840.00
2022-08-08T05:00:48.431Z,96838.44
2022-08-08T05:03:19.189Z,96840.16
2022-08-08T05:06:12.575Z,96840.81
2022-08-08T05:08:51.938Z,96831.09
2022-08-08T05:11:22.878Z,96842.59
2022-08-08T05:13:57.840Z,96844.31
2022-08-08T05:16:51.030Z,96843.28
2022-08-08T05:20:09.998Z,96842.81
2022-08-08T05:22:04.861Z,96839.06
2022-08-08T05:24:34.676Z,96836.94
2022-08-08T05:27:06.141Z,96839.16
2022-08-08T05:29:36.894Z,96852.94
2022-08-08T05:32:07.717Z,96839.75
2022-08-08T05:34:37.917Z,96849.56
2022-08-08T05:37:07.619Z,96827.09
2022-08-08T05:39:50.508Z,96843.19
2022-08-08T05:42:19.338Z,96844.03
2022-08-08T05:44:51.490Z,96826.75
2022-08-08T05:47:21.872Z,96846.25
2022-08-08T05:49:54.328Z,96847.59
2022-08-08T05:52:32.132Z,96853.56
2022-08-08T05:55:07.434Z,96849.25
2022-08-08T05:58:05.590Z,96859.56
2022-08-08T06:00:34.190Z,96860.38
2022-08-08T06:03:17.559Z,96860.66
2022-08-08T06:05:56.646Z,96864.44
2022-08-08T06:08:34.639Z,96861.16
2022-08-08T06:11:04.251Z,96870.06
2022-08-08T06:13:36.433Z,96869.78
2022-08-08T06:16:16.711Z,96865.09
2022-08-08T06:18:50.228Z,96874.34
2022-08-08T06:21:32.432Z,96871.34
2022-08-08T06:24:13.830Z,96870.25
2022-08-08T06:26:57.838Z,96874.44
2022-08-08T06:29:56.511Z,96877.41
2022-08-08T06:32:26.210Z,96870.94
2022-08-08T06:35:34.975Z,96880.59
2022-08-08T06:37:46.929Z,96874.84
2022-08-08T06:40:26.726Z,96862.56
2022-08-08T06:42:57.819Z,96880.13
2022-08-08T06:45:26.556Z,96880.38
2022-08-08T06:48:01.021Z,96882.06
2022-08-08T06:50:33.399Z,96877.84
2022-08-08T06:53:14.202Z,96877.06
2022-08-08T06:56:02.759Z,96883.16
2022-08-08T06:58:33.386Z,96882.47
2022-08-08T07:01:52.330Z,96878.19
2022-08-08T07:04:36.819Z,96887.53
2022-08-08T07:06:51.502Z,96891.97
2022-08-08T07:09:21.600Z,96899.53
2022-08-08T07:11:51.974Z,96892.38
2022-08-08T07:14:27.647Z,96891.97
2022-08-08T07:17:09.104Z,96892.25
2022-08-08T07:19:44.529Z,96892.47
2022-08-08T07:22:18.706Z,96890.94
2022-08-08T07:24:53.599Z,96892.97
2022-08-08T07:27:27.717Z,96903.50
2022-08-08T07:30:09.892Z,96896.19
2022-08-08T07:32:42.710Z,96900.97
2022-08-08T07:35:14.125Z,96901.31
2022-08-08T07:38:04.235Z,96888.31
2022-08-08T07:40:32.934Z,96903.78
2022-08-08T07:43:04.193Z,96902.38
2022-08-08T07:46:04.858Z,96897.75
2022-08-08T07:48:29.794Z,96888.31
2022-08-08T07:51:01.285Z,96901.22
2022-08-08T07:54:01.181Z,96881.13
2022-08-08T07:56:36.185Z,96893.50
2022-08-08T07:59:14.285Z,96907.47
2022-08-08T08:02:33.050Z,96889.16
2022-08-08T08:04:46.656Z,96905.66
2022-08-08T08:07:19.235Z,96913.91
2022-08-08T08:09:56.340Z,96911.31
2022-08-08T08:12:31.573Z,96910.50
2022-08-08T08:15:06.776Z,96909.66
2022-08-08T08:17:47.816Z,96908.00
2022-08-08T08:20:20.709Z,96914.94
2022-08-08T08:22:49.949Z,96908.75
2022-08-08T08:25:35.841Z,96909.72
2022-08-08T08:28:09.313Z,96917.28
2022-08-08T08:30:37.683Z,96918.00
2022-08-08T08:33:05.861Z,96918.97
2022-08-08T08:36:19.955Z,96909.63
2022-08-08T08:38:29.024Z,96919.38
2022-08-08T08:40:56.839Z,96916.81
2022-08-08T08:43:26.926Z,96913.63
2022-08-08T08:45:57.904Z,96898.59
2022-08-08T08:48:26.088Z,96917.50
2022-08-08T08:50:55.650Z,96913.34
2022-08-08T08:53:27.686Z,96915.19
2022-08-08T08:56:18.362Z,96913.25
2022-08-08T08:58:53.309Z,96918.56
2022-08-08T09:01:27.709Z,96913.78
2022-08-08T09:04:01.379Z,96910.81
2022-08-08T09:06:38.386Z,96915.38
2022-08-08T09:09:26.344Z,96909.22
2022-08-08T09:12:08.727Z,96912.00
2022-08-08T09:14:42.776Z,96917.28
2022-08-08T09:17:18.280Z,96910.16
2022-08-08T09:21:59.115Z,96916.03
2022-08-08T09:22:36.674Z,96914.69
2022-08-08T09:25:09.589Z,96910.84
2022-08-08T09:27:56.495Z,96918.09
2022-08-08T09:30:27.868Z,96907.94
2022-08-08T09:33:54.476Z,96909.75
2022-08-08T09:35:49.048Z,96909.06
2022-08-08T09:38:32.119Z,96908.69
2022-08-08T09:41:05.456Z,96908.78
2022-08-08T09:44:06.406Z,96898.00
2022-08-08T09:46:38.897Z,96907.31
2022-08-08T09:49:42.067Z,96911.00
2022-08-08T09:52:06.079Z,96904.25
2022-08-08T09:54:42.443Z,96887.59
2022-08-08T09:57:17.488Z,96906.06
2022-08-08T10:00:28.745Z,96892.59
2022-08-08T10:02:41.875Z,96897.53
2022-08-08T10:05:22.964Z,96899.50
2022-08-08T10:07:59.752Z,96914.63
2022-08-08T10:10:32.337Z,96897.75
2022-08-08T10:13:06.196Z,96908.84
2022-08-08T10:16:01.025Z,96901.19
2022-08-08T10:18:31.160Z,96908.03
2022-08-08T10:21:22.641Z,96894.09
2022-08-08T10:23:58.348Z,96888.22
2022-08-08T10:26:58.615Z,96902.97
2022-08-08T10:29:28.233Z,96898.50
2022-08-08T10:32:28.153Z,96892.88
2022-08-08T10:35:01.296Z,96889.59
2022-08-08T10:37:30.732Z,96884.66
2022-08-08T10:39:59.982Z,96894.16
2022-08-08T10:42:37.716Z,96889.16
2022-08-08T10:45:16.040Z,96895.78
2022-08-08T10:47:55.373Z,96886.78
2022-08-08T10:50:31.099Z,96884.56
2022-08-08T10:53:03.311Z,96866.56
2022-08-08T10:55:39.480Z,96890.16
2022-08-08T10:58:09.795Z,96890.03
2022-08-08T11:00:48.597Z,96889.03
2022-08-08T11:03:52.279Z,96892.13
2022-08-08T11:06:12.352Z,96895.78
2022-08-08T11:08:53.257Z,96883.94
2022-08-08T11:11:31.635Z,96887.31
2022-08-08T11:14:03.934Z,96882.72
2022-08-08T11:16:35.240Z,96876.03
2022-08-08T11:19:06.123Z,96885.91
2022-08-08T11:21:41.134Z,96871.56
2022-08-08T11:24:11.173Z,96867.72
2022-08-08T11:26:56.720Z,96877.38
2022-08-08T11:29:29.467Z,96856.66
2022-08-08T11:32:17.046Z,96872.59
2022-08-08T11:35:08.322Z,96869.94
2022-08-08T11:38:35.386Z,96867.72
2022-08-08T11:40:28.384Z,96871.72
2022-08-08T11:43:01.272Z,96868.75
2022-08-08T11:45:36.734Z,96874.31
2022-08-08T11:48:20.394Z,96861.06
2022-08-08T11:50:52.584Z,96857.72
2022-08-08T11:53:24.391Z,96851.75
2022-08-08T11:55:53.662Z,96840.91
2022-08-08T11:58:33.749Z,96852.97
2022-08-08T12:01:12.334Z,96852.91
2022-08-08T12:03:47.831Z,96851.38
2022-08-08T12:06:17.782Z,96851.84
2022-08-08T12:08:46.583Z,96843.31
2022-08-08T12:11:22.984Z,96841.81
2022-08-08T12:14:04.694Z,96834.00
2022-08-08T12:16:42.038Z,96836.13
2022-08-08T12:19:14.718Z,96832.53
2022-08-08T12:22:00.553Z,96825.00
2022-08-08T12:24:32.298Z,96838.41
2022-08-08T12:27:00.081Z,96834.50
2022-08-08T12:29:42.035Z,96834.25
2022-08-08T12:32:16.936Z,96818.19
2022-08-08T12:34:50.670Z,96823.72
2022-08-08T12:37:41.048Z,96817.69
2022-08-08T12:40:22.561Z,96839.75
2022-08-08T12:42:51.238Z,96825.22
2022-08-08T12:45:58.873Z,96821.97
2022-08-08T12:48:18.161Z,96815.75
2022-08-08T12:50:58.602Z,96825.91
2022-08-08T12:53:37.910Z,96825.84
2022-08-08T12:56:18.700Z,96821.53
2022-08-08T12:58:50.690Z,96819.09
2022-08-08T13:01:29.537Z,96821.69
2022-08-08T13:04:18.515Z,96807.38
2022-08-08T13:07:00.895Z,96813.03
2022-08-08T13:09:34.235Z,96822.28
2022-08-08T13:12:30.101Z,96821.31
2022-08-08T13:15:02.200Z,96819.09
2022-08-08T13:17:54.132Z,96808.50
2022-08-08T13:20:21.816Z,96816.63
2022-08-08T13:22:51.552Z,96813.78
2022-08-08T13:25:28.796Z,96819.94
2022-08-08T13:28:00.810Z,96811.97
2022-08-08T13:30:28.783Z,96814.78
2022-08-08T13:32:57.566Z,96816.75
2022-08-08T13:35:29.709Z,96818.59
2022-08-08T13:38:08.551Z,96827.13
2022-08-08T13:40:44.940Z,96811.88
2022-08-08T13:43:13.821Z,96800.94
2022-08-08T13:45:47.606Z,96800.34
2022-08-08T13:48:17.119Z,96806.88
2022-08-08T13:50:53.691Z,96808.28
2022-08-08T13:53:33.871Z,96792.16
2022-08-08T13:56:11.792Z,96799.84
2022-08-08T13:58:56.335Z,96799.97
2022-08-08T14:01:32.861Z,96788.19
2022-08-08T14:04:22.329Z,96799.72
2022-08-08T14:06:58.750Z,96780.97
2022-08-08T14:10:05.497Z,96794.13
2022-08-08T14:12:25.922Z,96790.81
2022-08-08T14:14:56.015Z,96792.00
2022-08-08T14:17:57.123Z,96804.81
2022-08-08T14:20:15.727Z,96790.97
2022-08-08T14:23:10.251Z,96798.03
2022-08-08T14:25:54.121Z,96793.56
2022-08-08T14:28:29.200Z,96801.28
2022-08-08T14:31:09.346Z,96789.09
2022-08-08T14:33:39.035Z,96792.03
2022-08-08T14:36:09.567Z,96790.91
2022-08-08T14:38:51.775Z,96793.81
2022-08-08T14:41:53.232Z,96790.69
2022-08-08T14:44:17.010Z,96798.81
2022-08-08T14:47:00.372Z,96794.56
2022-08-08T14:49:37.865Z,96785.84
2022-08-08T14:52:23.810Z,96784.56
2022-08-08T14:54:51.768Z,96788.38
2022-08-08T14:57:20.761Z,96783.78
2022-08-08T15:00:12.204Z,96783.03
2022-08-08T15:02:58.565Z,96767.34
2022-08-08T15:05:33.988Z,96781.63
2022-08-08T15:08:22.024Z,96793.50
2022-08-08T15:10:58.658Z,96786.91
2022-08-08T15:13:26.679Z,96784.88
2022-08-08T15:16:11.721Z,96781.59
2022-08-08T15:18:43.997Z,96776.91
2022-08-08T15:21:17.987Z,96783.66
2022-08-08T15:23:51.227Z,96784.31
2022-08-08T15:26:19.822Z,96779.72
2022-08-08T15:28:53.330Z,96775.81
2022-08-08T15:31:26.046Z,96777.56
2022-08-08T15:34:29.078Z,96775.03
2022-08-08T15:36:58.009Z,96779.13
2022-08-08T15:39:26.013Z,96768.75
2022-08-08T15:41:54.725Z,96769.88
2022-08-08T15:44:22.643Z,96773.75
2022-08-08T15:46:51.976Z,96767.13
2022-08-08T15:49:21.126Z,96766.91
2022-08-08T15:51:51.899Z,96776.63
2022-08-08T15:54:38.733Z,96771.38
2022-08-08T15:57:09.464Z,96784.97
2022-08-08T16:00:06.362Z,96780.97
2022-08-08T16:02:31.024Z,96783.56
2022-08-08T16:04:59.648Z,96782.88
2022-08-08T16:07:39.437Z,96773.19
2022-08-08T16:13:20.911Z,96782.94
2022-08-08T16:13:30.147Z,96785.28
2022-08-08T16:15:58.926Z,96777.75
2022-08-08T16:18:33.012Z,96769.72
2022-08-08T16:21:01.431Z,96772.06
2022-08-08T16:23:32.359Z,96779.75
2022-08-08T16:26:03.826Z,96791.59
2022-08-08T16:28:35.266Z,96750.72
2022-08-08T16:31:07.972Z,96771.09
2022-08-08T16:33:40.327Z,96772.75
2022-08-08T16:36:09.710Z,96773.19
2022-08-08T16:38:47.714Z,96771.78
2022-08-08T16:41:22.742Z,96778.81
2022-08-08T16:43:53.046Z,96771.09
2022-08-08T16:46:37.516Z,96772.09
2022-08-08T16:49:10.534Z,96774.63
2022-08-08T16:55:02.071Z,96777.00
2022-08-08T16:55:23.877Z,96776.44
2022-08-08T16:57:23.664Z,96772.75
2022-08-08T17:00:09.151Z,96780.63
2022-08-08T17:02:41.935Z,96780.00
2022-08-08T17:05:12.933Z,96773.69
2022-08-08T17:07:41.750Z,96772.75
2022-08-08T17:10:11.565Z,96769.00
2022-08-08T17:12:52.537Z,96774.34
2022-08-08T17:15:22.956Z,96769.84
2022-08-08T17:18:02.993Z,96782.25
2022-08-08T17:20:38.150Z,96779.88
2022-08-08T17:23:17.976Z,96781.16
2022-08-08T17:25:56.066Z,96787.13
2022-08-08T17:28:34.899Z,96781.50
2022-08-08T17:31:39.552Z,96791.50
2022-08-08T17:34:35.919Z,96791.31
2022-08-08T17:37:01.092Z,96795.84
2022-08-08T17:40:03.495Z,96796.47
2022-08-08T17:42:16.181Z,96801.47
2022-08-08T17:44:46.443Z,96799.06
2022-08-08T17:47:23.726Z,96809.34
2022-08-08T17:49:53.070Z,96810.00
2022-08-08T17:52:30.980Z,96817.88
2022-08-08T17:54:58.838Z,96823.03
2022-08-08T17:57:28.970Z,96816.88
2022-08-08T18:00:03.728Z,96825.22
2022-08-08T18:02:31.498Z,96821.50
2022-08-08T18:05:00.967Z,96819.25
2022-08-08T18:08:01.823Z,96834.19
2022-08-08T18:10:31.592Z,96832.72
2022-08-08T18:13:01.798Z,96835.66
2022-08-08T18:15:31.247Z,96829.03
2022-08-08T18:18:10.049Z,96825.34
2022-08-08T18:20:59.425Z,96830.31
2022-08-08T18:23:29.122Z,96830.75
2022-08-08T18:26:01.546Z,96829.56
2022-08-08T18:28:34.882Z,96834.03
2022-08-08T18:31:19.667Z,96840.94
2022-08-08T18:34:12.236Z,96838.28
2022-08-08T18:36:35.970Z,96843.78
2022-08-08T18:39:05.710Z,96848.97
2022-08-08T18:41:51.699Z,96850.09
2022-08-08T18:44:21.590Z,96846.31
2022-08-08T18:46:58.035Z,96855.13
2022-08-08T18:49:32.555Z,96851.53
2022-08-08T18:52:18.293Z,96855.63
2022-08-08T18:55:00.685Z,96860.69
2022-08-08T18:57:36.774Z,96866.88
2022-08-08T19:00:09.551Z,96862.78
2022-08-08T19:02:54.774Z,96870.69
2022-08-08T19:05:30.645Z,96873.97
2022-08-08T19:08:08.544Z,96869.81
2022-08-08T19:10:41.199Z,96870.09
2022-08-08T19:13:10.871Z,96853.81
2022-08-08T19:15:48.726Z,96874.84
2022-08-08T19:18:33.362Z,96878.44
2022-08-08T19:21:29.466Z,96878.22
2022-08-08T19:23:56.108Z,96877.28
2022-08-08T19:26:30.415Z,96878.78
2022-08-08T19:28:59.160Z,96885.31
2022-08-08T19:31:31.623Z,96892.63
2022-08-08T19:34:35.605Z,96887.16
2022-08-08T19:36:55.360Z,96895.41
2022-08-08T19:39:26.084Z,96900.69
2022-08-08T19:42:06.712Z,96906.31
2022-08-08T19:44:45.965Z,96900.31
2022-08-08T19:47:16.544Z,96896.44
2022-08-08T19:49:59.654Z,96907.94
2022-08-08T19:52:35.493Z,96902.59
2022-08-08T19:55:08.895Z,96903.44
2022-08-08T19:57:37.988Z,96902.75
2022-08-08T20:00:11.514Z,96903.25
2022-08-08T20:02:56.559Z,96900.06
2022-08-08T20:06:14.323Z,96905.09
2022-08-08T20:08:27.946Z,96909.00
2022-08-08T20:10:59.740Z,96909.50
2022-08-08T20:14:31.644Z,96915.22
2022-08-08T20:16:17.004Z,96912.22
2022-08-08T20:18:52.078Z,96917.66
2022-08-08T20:21:25.069Z,96914.97
2022-08-08T20:23:54.181Z,96913.00
2022-08-08T20:26:29.927Z,96912.50
2022-08-08T20:29:03.430Z,96908.47
2022-08-08T20:31:47.332Z,96909.59
2022-08-08T20:34:30.628Z,96908.88
2022-08-08T20:36:59.942Z,96917.00
2022-08-08T20:39:39.587Z,96909.88
2022-08-08T20:42:15.729Z,96915.72
2022-08-08T20:44:44.807Z,96911.91
2022-08-08T20:47:22.730Z,96913.94
2022-08-08T20:49:50.944Z,96914.78
2022-08-08T20:52:22.377Z,96910.78
2022-08-08T20:54:51.544Z,96906.38
2022-08-08T20:57:21.110Z,96907.53
2022-08-08T20:59:51.440Z,96899.44
2022-08-08T21:02:25.904Z,96906.31
2022-08-08T21:04:57.293Z,96903.84
2022-08-08T21:07:31.303Z,96907.03
2022-08-08T21:10:16.730Z,96904.03
2022-08-08T21:12:46.778Z,96904.88
2022-08-08T21:16:04.212Z,96911.75
2022-08-08T21:18:09.587Z,96905.78
2022-08-08T21:20:39.601Z,96905.59
2022-08-08T21:23:13.174Z,96903.22
2022-08-08T21:25:46.027Z,96910.88
2022-08-08T21:28:33.351Z,96903.38
2022-08-08T21:31:21.731Z,96904.50
2022-08-08T21:33:50.211Z,96905.94
2022-08-08T21:36:20.777Z,96906.53
2022-08-08T21:38:50.300Z,96885.66
2022-08-08T21:41:28.871Z,96909.38
2022-08-08T21:44:05.978Z,96905.59
2022-08-08T21:48:07.245Z,96904.25
2022-08-08T21:49:23.675Z,96898.09
2022-08-08T21:54:23.208Z,96905.41
2022-08-08T21:55:03.478Z,96904.94
2022-08-08T21:57:42.124Z,96913.34
2022-08-08T22:00:14.350Z,96899.00
2022-08-08T22:02:44.441Z,96900.63
2022-08-08T22:05:14.982Z,96906.63
2022-08-08T22:07:47.416Z,96907.69
2022-08-08T22:10:32.319Z,96899.03
2022-08-08T22:13:18.858Z,96909.63
2022-08-08T22:15:59.238Z,96912.06
2022-08-08T22:18:31.153Z,96909.09
2022-08-08T22:21:01.602Z,96901.78
2022-08-08T22:23:41.109Z,96888.78
2022-08-08T22:26:29.064Z,96905.28
2022-08-08T22:29:04.596Z,96902.88
2022-08-08T22:31:41.938Z,96905.03
2022-08-08T22:34:15.370Z,96907.75
2022-08-08T22:36:43.556Z,96898.25
2022-08-08T22:39:18.887Z,96898.53
2022-08-08T22:41:49.308Z,96895.81
2022-08-08T22:44:17.556Z,96893.66
2022-08-08T22:46:45.866Z,96895.81
2022-08-08T22:49:20.038Z,96893.66
2022-08-08T22:51:48.315Z,96890.13
2022-08-08T22:54:30.757Z,96899.31
2022-08-08T22:57:08.738Z,96876.31
2022-08-08T22:59:48.454Z,96892.31
2022-08-08T23:02:28.545Z,96892.00
2022-08-08T23:04:58.591Z,96888.00
2022-08-08T23:07:51.687Z,96877.13
2022-08-08T23:10:25.418Z,96866.31
2022-08-08T23:12:55.112Z,96875.78
2022-08-08T23:16:39.771Z,96871.75
2022-08-08T23:18:12.385Z,96881.22
2022-08-08T23:20:43.231Z,96878.78
2022-08-08T23:23:12.372Z,96885.28
2022-08-08T23:25:48.025Z,96887.72
2022-08-08T23:28:18.767Z,96885.03
2022-08-08T23:30:47.369Z,96878.50
2022-08-08T23:33:21.218Z,96863.84
2022-08-08T23:36:08.921Z,96886.91
2022-08-08T23:38:44.282Z,96888.81
2022-08-08T23:41:24.435Z,96883.94
2022-08-08T23:43:54.399Z,96880.66
2022-08-08T23:49:04.762Z,96878.22
2022-08-08T23:49:14.921Z,96883.34
2022-08-08T23:52:04.530Z,96883.06
2022-08-08T23:54:42.477Z,96880.88
2022-08-08T23:57:26.694Z,96881.19
